createdAt,value
2018-08-21T00:02:34.144Z,102049.03
2018-08-21T00:05:02.602Z,102055.33
2018-08-21T00:07:31.192Z,102048.38
2018-08-21T00:09:59.444Z,102051.72
2018-08-21T00:12:27.744Z,102054.66
2018-08-21T00:15:07.277Z,102049.45
2018-08-21T00:17:35.547Z,102049.21
2018-08-21T00:20:07.665Z,102055.07
2018-08-21T00:22:35.961Z,102052.53
2018-08-21T00:25:04.265Z,102053.00
2018-08-21T00:27:32.533Z,102054.32
2018-08-21T00:30:00.825Z,102067.33
2018-08-21T00:32:29.109Z,102065.30
2018-08-21T00:34:57.349Z,102065.44
2018-08-21T00:37:25.629Z,102069.41
2018-08-21T00:39:53.897Z,102070.86
2018-08-21T00:42:22.237Z,102066.50
2018-08-21T00:44:54.729Z,102065.80
2018-08-21T00:47:23.051Z,102076.27
2018-08-21T00:49:51.320Z,102071.58
2018-08-21T00:52:19.709Z,102080.02
2018-08-21T00:54:47.988Z,102083.12
2018-08-21T00:57:16.242Z,102083.51
2018-08-21T00:59:44.525Z,102084.00
2018-08-21T01:02:12.765Z,102086.03
2018-08-21T01:04:41.056Z,102086.77
2018-08-21T01:07:09.317Z,102088.56
2018-08-21T01:09:37.593Z,102094.69
2018-08-21T01:12:06.212Z,102095.61
2018-08-21T01:14:35.565Z,102097.67
2018-08-21T01:17:03.846Z,102096.91
2018-08-21T01:19:32.117Z,102093.92
2018-08-21T01:22:00.389Z,102096.80
2018-08-21T01:24:28.653Z,102099.70
2018-08-21T01:26:56.897Z,102103.53
2018-08-21T01:29:25.160Z,102104.27
2018-08-21T01:31:53.496Z,102111.09
2018-08-21T01:34:21.721Z,102115.53
2018-08-21T01:36:50.054Z,102114.70
2018-08-21T01:39:18.298Z,102113.39
2018-08-21T01:41:47.673Z,102113.95
2018-08-21T01:44:15.925Z,102116.98
2018-08-21T01:46:48.937Z,102125.39
2018-08-21T01:49:17.181Z,102121.87
2018-08-21T01:51:45.441Z,102125.83
2018-08-21T01:54:16.429Z,102127.67
2018-08-21T01:56:44.921Z,102131.86
2018-08-21T01:59:13.806Z,102133.18
2018-08-21T02:01:42.096Z,102125.27
2018-08-21T02:04:10.350Z,102133.75
2018-08-21T02:06:38.625Z,102129.47
2018-08-21T02:09:11.249Z,102133.18
2018-08-21T02:11:40.854Z,102131.24
2018-08-21T02:14:09.925Z,102128.38
2018-08-21T02:16:38.948Z,102133.31
2018-08-21T02:19:07.501Z,102135.85
2018-08-21T02:21:35.989Z,102138.23
2018-08-21T02:24:04.267Z,102143.06
2018-08-21T02:26:32.549Z,102140.91
2018-08-21T02:29:00.808Z,102136.94
2018-08-21T02:31:29.062Z,102137.20
2018-08-21T02:33:57.613Z,102138.77
2018-08-21T02:36:25.971Z,102138.89
2018-08-21T02:38:54.281Z,102133.02
2018-08-21T02:41:22.549Z,102136.34
2018-08-21T02:43:50.826Z,102137.22
2018-08-21T02:46:26.748Z,102140.08
2018-08-21T02:48:57.425Z,102138.30
2018-08-21T02:51:35.314Z,102140.94
2018-08-21T02:54:04.021Z,102133.61
2018-08-21T02:56:32.288Z,102136.61
2018-08-21T02:59:01.192Z,102134.67
2018-08-21T03:01:37.996Z,102130.01
2018-08-21T03:04:13.713Z,102129.41
2018-08-21T03:06:42.084Z,102122.10
2018-08-21T03:09:13.854Z,102129.06
2018-08-21T03:11:42.836Z,102131.66
2018-08-21T03:14:11.157Z,102125.89
2018-08-21T03:16:39.451Z,102128.43
2018-08-21T03:19:08.002Z,102131.53
2018-08-21T03:21:36.309Z,102124.94
2018-08-21T03:24:04.827Z,102123.99
2018-08-21T03:26:33.081Z,102125.06
2018-08-21T03:29:01.377Z,102130.58
2018-08-21T03:31:29.637Z,102126.85
2018-08-21T03:33:57.920Z,102133.20
2018-08-21T03:36:28.153Z,102134.66
2018-08-21T03:38:56.441Z,102136.44
2018-08-21T03:41:24.745Z,102136.82
2018-08-21T03:43:53.097Z,102133.55
2018-08-21T03:46:21.393Z,102135.11
2018-08-21T03:48:49.751Z,102129.27
2018-08-21T03:51:19.108Z,102135.59
2018-08-21T03:53:53.654Z,102136.91
2018-08-21T03:56:22.369Z,102137.45
2018-08-21T03:58:50.633Z,102137.79
2018-08-21T04:01:18.927Z,102141.51
2018-08-21T04:03:52.633Z,102138.13
2018-08-21T04:06:29.358Z,102143.41
2018-08-21T04:08:57.729Z,102141.00
2018-08-21T04:11:26.369Z,102138.81
2018-08-21T04:13:58.020Z,102138.68
2018-08-21T04:16:26.350Z,102138.09
2018-08-21T04:18:55.637Z,102138.75
2018-08-21T04:21:28.153Z,102138.27
2018-08-21T04:23:56.793Z,102136.05
2018-08-21T04:26:26.409Z,102141.69
2018-08-21T04:28:55.708Z,102148.19
2018-08-21T04:31:24.003Z,102157.38
2018-08-21T04:33:55.919Z,102147.05
2018-08-21T04:36:24.178Z,102145.22
2018-08-21T04:38:53.532Z,102154.63
2018-08-21T04:41:21.836Z,102152.59
2018-08-21T04:43:50.129Z,102151.63
2018-08-21T04:46:19.409Z,102157.73
2018-08-21T04:48:48.209Z,102159.25
2018-08-21T04:51:17.993Z,102161.81
2018-08-21T04:53:46.282Z,102164.17
2018-08-21T04:56:14.537Z,102169.57
2018-08-21T04:58:44.548Z,102168.77
2018-08-21T05:01:12.846Z,102166.59
2018-08-21T05:03:41.173Z,102171.16
2018-08-21T05:06:09.486Z,102169.59
2018-08-21T05:08:37.766Z,102164.93
2018-08-21T05:11:10.648Z,102167.16
2018-08-21T05:13:38.977Z,102169.33
2018-08-21T05:16:07.281Z,102168.58
2018-08-21T05:18:35.697Z,102164.97
2018-08-21T05:21:04.241Z,102171.89
2018-08-21T05:23:32.787Z,102173.14
2018-08-21T05:26:02.321Z,102170.91
2018-08-21T05:28:32.295Z,102181.94
2018-08-21T05:31:06.525Z,102182.08
2018-08-21T05:33:34.811Z,102183.55
2018-08-21T05:36:05.061Z,102179.38
2018-08-21T05:38:34.744Z,102179.67
2018-08-21T05:41:05.409Z,102186.41
2018-08-21T05:43:35.151Z,102183.56
2018-08-21T05:46:04.420Z,102192.83
2018-08-21T05:48:32.801Z,102193.78
2018-08-21T05:51:01.313Z,102195.96
2018-08-21T05:53:30.629Z,102198.71
2018-08-21T05:55:59.579Z,102197.33
2018-08-21T05:58:28.232Z,102200.52
2018-08-21T06:00:56.645Z,102208.72
2018-08-21T06:03:24.937Z,102210.77
2018-08-21T06:05:53.229Z,102216.44
2018-08-21T06:08:22.593Z,102214.11
2018-08-21T06:10:50.852Z,102208.04
2018-08-21T06:13:19.169Z,102217.65
2018-08-21T06:15:48.017Z,102220.80
2018-08-21T06:18:22.346Z,102229.70
2018-08-21T06:20:55.549Z,102226.51
2018-08-21T06:23:25.532Z,102222.67
2018-08-21T06:25:53.757Z,102216.48
2018-08-21T06:28:25.210Z,102217.52
2018-08-21T06:30:53.493Z,102218.61
2018-08-21T06:33:21.805Z,102225.14
2018-08-21T06:35:50.325Z,102230.50
2018-08-21T06:38:18.845Z,102231.70
2018-08-21T06:40:47.390Z,102234.16
2018-08-21T06:43:16.410Z,102226.93
2018-08-21T06:45:44.710Z,102235.12
2018-08-21T06:48:14.922Z,102241.89
2018-08-21T06:50:44.797Z,102239.06
2018-08-21T06:53:13.613Z,102240.83
2018-08-21T06:55:42.070Z,102240.03
2018-08-21T06:58:11.596Z,102245.50
2018-08-21T07:00:41.033Z,102245.01
2018-08-21T07:03:10.494Z,102248.46
2018-08-21T07:05:39.877Z,102265.17
2018-08-21T07:08:09.779Z,102267.94
2018-08-21T07:10:38.120Z,102262.48
2018-08-21T07:13:06.509Z,102261.81
2018-08-21T07:15:34.842Z,102260.17
2018-08-21T07:18:04.250Z,102265.28
2018-08-21T07:20:34.281Z,102259.70
2018-08-21T07:23:02.597Z,102259.75
2018-08-21T07:25:31.057Z,102260.64
2018-08-21T07:27:59.337Z,102261.09
2018-08-21T07:30:35.251Z,102269.63
2018-08-21T07:33:03.529Z,102270.57
2018-08-21T07:35:31.879Z,102273.75
2018-08-21T07:38:00.125Z,102273.68
2018-08-21T07:40:28.527Z,102276.41
2018-08-21T07:42:56.796Z,102273.14
2018-08-21T07:45:25.395Z,102274.55
2018-08-21T07:47:53.690Z,102270.41
2018-08-21T07:50:22.007Z,102279.95
2018-08-21T07:52:55.649Z,102280.35
2018-08-21T07:55:24.172Z,102275.58
2018-08-21T07:57:53.657Z,102276.93
2018-08-21T08:00:22.975Z,102273.07
2018-08-21T08:02:54.713Z,102277.67
2018-08-21T08:05:25.361Z,102276.48
2018-08-21T08:07:54.467Z,102278.55
2018-08-21T08:10:24.586Z,102282.06
2018-08-21T08:12:54.906Z,102281.13
2018-08-21T08:15:23.237Z,102278.77
2018-08-21T08:17:55.552Z,102283.31
2018-08-21T08:20:25.033Z,102278.97
2018-08-21T08:22:53.647Z,102280.39
2018-08-21T08:25:21.929Z,102290.72
2018-08-21T08:27:50.217Z,102294.30
2018-08-21T08:30:18.979Z,102283.71
2018-08-21T08:32:47.972Z,102290.37
2018-08-21T08:35:17.245Z,102291.89
2018-08-21T08:37:46.878Z,102291.67
2018-08-21T08:40:20.433Z,102287.37
2018-08-21T08:42:50.916Z,102292.39
2018-08-21T08:45:23.535Z,102288.98
2018-08-21T08:47:51.922Z,102290.00
2018-08-21T08:50:20.177Z,102293.00
2018-08-21T08:52:49.673Z,102287.66
2018-08-21T08:55:17.954Z,102283.16
2018-08-21T08:57:48.389Z,102282.76
2018-08-21T09:00:18.295Z,102292.45
2018-08-21T09:02:49.665Z,102279.73
2018-08-21T09:05:18.279Z,102282.47
2018-08-21T09:07:46.602Z,102282.97
2018-08-21T09:10:14.878Z,102277.35
2018-08-21T09:12:43.188Z,102274.95
2018-08-21T09:15:11.593Z,102275.13
2018-08-21T09:17:39.999Z,102278.91
2018-08-21T09:20:10.409Z,102276.55
2018-08-21T09:22:41.252Z,102283.08
2018-08-21T09:25:09.557Z,102281.64
2018-08-21T09:27:41.211Z,102272.80
2018-08-21T09:30:12.750Z,102273.13
2018-08-21T09:32:41.019Z,102278.97
2018-08-21T09:35:09.318Z,102280.20
2018-08-21T09:37:37.581Z,102276.73
2018-08-21T09:40:05.923Z,102278.17
2018-08-21T09:42:35.285Z,102271.04
2018-08-21T09:45:03.614Z,102270.84
2018-08-21T09:47:31.919Z,102268.37
2018-08-21T09:50:02.309Z,102270.61
2018-08-21T09:52:31.482Z,102268.25
2018-08-21T09:55:04.918Z,102265.30
2018-08-21T09:58:57.595Z,102260.14
2018-08-21T10:01:31.057Z,102263.05
2018-08-21T10:04:04.701Z,102260.19
2018-08-21T10:06:33.068Z,102265.72
2018-08-21T10:09:01.295Z,102261.05
2018-08-21T10:11:30.034Z,102264.09
2018-08-21T10:14:00.399Z,102261.40
2018-08-21T10:16:28.711Z,102262.75
2018-08-21T10:18:57.281Z,102260.91
2018-08-21T10:21:27.716Z,102257.31
2018-08-21T10:23:59.188Z,102262.55
2018-08-21T10:26:37.617Z,102253.48
2018-08-21T10:29:05.945Z,102246.81
2018-08-21T10:31:36.565Z,102244.36
2018-08-21T10:34:05.859Z,102246.27
2018-08-21T10:36:34.545Z,102249.08
2018-08-21T10:39:02.915Z,102252.34
2018-08-21T10:41:31.174Z,102246.78
2018-08-21T10:44:01.375Z,102244.76
2018-08-21T10:46:29.664Z,102246.38
2018-08-21T10:48:58.016Z,102249.06
2018-08-21T10:51:26.274Z,102250.08
2018-08-21T10:53:54.556Z,102248.22
2018-08-21T10:56:22.962Z,102253.64
2018-08-21T10:58:51.356Z,102251.27
2018-08-21T11:01:19.689Z,102251.34
2018-08-21T11:03:50.262Z,102250.81
2018-08-21T11:06:18.550Z,102245.41
2018-08-21T11:08:47.490Z,102250.32
2018-08-21T11:11:15.773Z,102248.75
2018-08-21T11:14:00.758Z,102249.53
2018-08-21T11:16:30.405Z,102246.44
2018-08-21T11:18:59.404Z,102250.28
2018-08-21T11:21:28.024Z,102244.94
2018-08-21T11:23:56.220Z,102250.94
2018-08-21T11:26:24.534Z,102246.22
2018-08-21T11:28:53.435Z,102242.23
2018-08-21T11:31:21.796Z,102238.05
2018-08-21T11:33:50.277Z,102244.53
2018-08-21T11:36:19.214Z,102232.59
2018-08-21T11:38:47.506Z,102240.97
2018-08-21T11:41:15.831Z,102238.39
2018-08-21T11:43:44.165Z,102235.64
2018-08-21T11:46:12.474Z,102239.78
2018-08-21T11:48:40.758Z,102235.38
2018-08-21T11:51:09.921Z,102228.68
2018-08-21T11:53:38.202Z,102233.72
2018-08-21T11:56:06.501Z,102239.47
2018-08-21T11:58:34.766Z,102238.84
2018-08-21T12:01:03.090Z,102236.67
2018-08-21T12:03:31.488Z,102235.19
2018-08-21T12:05:59.713Z,102231.42
2018-08-21T12:08:28.057Z,102226.34
2018-08-21T12:10:56.360Z,102228.39
2018-08-21T12:13:24.933Z,102235.66
2018-08-21T12:15:53.226Z,102232.60
2018-08-21T12:18:21.517Z,102232.36
2018-08-21T12:20:49.778Z,102231.45
2018-08-21T12:23:18.073Z,102229.53
2018-08-21T12:25:46.329Z,102227.95
2018-08-21T12:28:14.701Z,102227.90
2018-08-21T12:30:42.975Z,102230.89
2018-08-21T12:33:11.291Z,102229.02
2018-08-21T12:35:39.581Z,102228.49
2018-08-21T12:38:07.901Z,102229.41
2018-08-21T12:40:36.565Z,102225.02
2018-08-21T12:43:04.869Z,102220.03
2018-08-21T12:45:33.157Z,102221.94
2018-08-21T12:48:01.909Z,102216.95
2018-08-21T12:50:30.373Z,102211.84
2018-08-21T12:52:58.685Z,102211.41
2018-08-21T12:55:26.993Z,102209.42
2018-08-21T12:57:55.289Z,102206.05
2018-08-21T13:00:23.542Z,102200.14
2018-08-21T13:02:51.913Z,102194.77
2018-08-21T13:05:20.181Z,102194.70
2018-08-21T13:07:48.469Z,102196.31
2018-08-21T13:10:16.777Z,102189.75
2018-08-21T13:12:45.112Z,102187.22
2018-08-21T13:15:13.397Z,102190.53
2018-08-21T13:17:41.677Z,102196.63
2018-08-21T13:20:09.965Z,102201.73
2018-08-21T13:22:38.257Z,102197.62
2018-08-21T13:25:06.590Z,102192.23
2018-08-21T13:27:34.872Z,102199.23
2018-08-21T13:30:03.270Z,102197.45
2018-08-21T13:32:31.583Z,102186.64
2018-08-21T13:34:59.897Z,102186.84
2018-08-21T13:37:28.181Z,102190.24
2018-08-21T13:39:56.665Z,102181.45
2018-08-21T13:42:25.409Z,102179.77
2018-08-21T13:44:53.921Z,102178.33
2018-08-21T13:47:22.185Z,102177.72
2018-08-21T13:49:50.562Z,102182.41
2018-08-21T13:52:18.929Z,102180.77
2018-08-21T13:54:47.237Z,102175.86
2018-08-21T13:57:15.517Z,102175.18
2018-08-21T13:59:43.872Z,102182.73
2018-08-21T14:02:12.178Z,102185.25
2018-08-21T14:04:40.481Z,102186.55
2018-08-21T14:07:08.786Z,102187.08
2018-08-21T14:09:37.196Z,102171.03
2018-08-21T14:12:05.485Z,102176.88
2018-08-21T14:14:33.773Z,102172.25
2018-08-21T14:17:02.134Z,102171.63
2018-08-21T14:19:30.404Z,102171.00
2018-08-21T14:21:58.713Z,102179.94
2018-08-21T14:24:27.013Z,102177.59
2018-08-21T14:26:55.299Z,102180.88
2018-08-21T14:29:23.601Z,102179.64
2018-08-21T14:31:51.893Z,102182.98
2018-08-21T14:34:20.186Z,102178.59
2018-08-21T14:36:48.540Z,102178.70
2018-08-21T14:39:16.885Z,102169.69
2018-08-21T14:41:45.181Z,102165.03
2018-08-21T14:44:13.445Z,102165.58
2018-08-21T14:46:41.765Z,102166.30
2018-08-21T14:49:10.041Z,102169.23
2018-08-21T14:51:38.398Z,102166.59
2018-08-21T14:54:06.654Z,102171.92
2018-08-21T14:56:34.949Z,102164.33
2018-08-21T14:59:03.260Z,102164.55
2018-08-21T15:01:31.654Z,102169.52
2018-08-21T15:03:59.973Z,102170.83
2018-08-21T15:06:28.505Z,102166.28
2018-08-21T15:08:56.842Z,102162.27
2018-08-21T15:11:25.185Z,102154.58
2018-08-21T15:13:53.818Z,102154.17
2018-08-21T15:16:22.125Z,102150.08
2018-08-21T15:18:50.575Z,102150.91
2018-08-21T15:21:18.928Z,102148.42
2018-08-21T15:23:47.241Z,102151.81
2018-08-21T15:26:15.521Z,102138.50
2018-08-21T15:28:43.863Z,102134.52
2018-08-21T15:31:12.177Z,102130.84
2018-08-21T15:33:40.550Z,102130.41
2018-08-21T15:36:09.389Z,102132.70
2018-08-21T15:38:37.689Z,102133.76
2018-08-21T15:41:06.034Z,102130.80
2018-08-21T15:43:34.510Z,102129.38
2018-08-21T15:46:02.822Z,102121.20
2018-08-21T15:48:31.135Z,102129.13
2018-08-21T15:50:59.432Z,102134.82
2018-08-21T15:53:28.193Z,102132.91
2018-08-21T15:55:56.753Z,102132.59
2018-08-21T15:58:25.356Z,102135.91
2018-08-21T16:00:53.589Z,102142.98
2018-08-21T16:03:21.905Z,102138.59
2018-08-21T16:05:50.170Z,102136.30
2018-08-21T16:08:18.548Z,102128.66
2018-08-21T16:10:46.778Z,102120.74
2018-08-21T16:13:15.048Z,102113.70
2018-08-21T16:15:43.336Z,102112.00
2018-08-21T16:18:11.709Z,102107.95
2018-08-21T16:20:40.009Z,102111.37
2018-08-21T16:23:08.287Z,102101.98
2018-08-21T16:25:36.581Z,102105.95
2018-08-21T16:28:04.869Z,102096.56
2018-08-21T16:30:33.172Z,102086.80
2018-08-21T16:33:01.466Z,102083.86
2018-08-21T16:35:29.757Z,102078.07
2018-08-21T16:37:58.067Z,102094.92
2018-08-21T16:40:27.636Z,102086.92
2018-08-21T16:42:55.723Z,102086.48
2018-08-21T16:45:24.025Z,102090.52
2018-08-21T16:47:52.301Z,102089.78
2018-08-21T16:50:20.667Z,102087.97
2018-08-21T16:52:48.954Z,102088.19
2018-08-21T16:55:17.272Z,102092.17
2018-08-21T16:57:45.569Z,102095.79
2018-08-21T17:00:14.953Z,102098.41
2018-08-21T17:02:43.237Z,102098.88
2018-08-21T17:05:11.521Z,102097.50
2018-08-21T17:07:39.773Z,102101.78
2018-08-21T17:10:09.306Z,102096.24
2018-08-21T17:12:37.810Z,102100.23
2018-08-21T17:15:06.685Z,102103.41
2018-08-21T17:17:35.113Z,102103.72
2018-08-21T17:20:03.429Z,102098.92
2018-08-21T17:22:32.172Z,102098.23
2018-08-21T17:25:00.537Z,102098.14
2018-08-21T17:27:28.834Z,102093.98
2018-08-21T17:29:57.103Z,102098.23
2018-08-21T17:32:25.397Z,102099.98
2018-08-21T17:34:53.690Z,102092.95
2018-08-21T17:37:21.977Z,102093.81
2018-08-21T17:39:50.241Z,102087.17
2018-08-21T17:42:18.532Z,102095.95
2018-08-21T17:44:46.823Z,102097.47
2018-08-21T17:47:15.109Z,102098.48
2018-08-21T17:49:43.372Z,102089.84
2018-08-21T17:52:11.683Z,102097.62
2018-08-21T17:54:39.945Z,102096.42
2018-08-21T17:57:08.236Z,102091.16
2018-08-21T17:59:36.523Z,102098.31
2018-08-21T18:02:05.988Z,102101.88
2018-08-21T18:04:34.317Z,102093.88
2018-08-21T18:07:03.674Z,102093.02
2018-08-21T18:09:33.689Z,102094.52
2018-08-21T18:12:02.027Z,102094.66
2018-08-21T18:14:30.364Z,102100.66
2018-08-21T18:16:58.664Z,102098.98
2018-08-21T18:19:26.931Z,102095.97
2018-08-21T18:21:55.229Z,102103.03
2018-08-21T18:24:23.521Z,102107.01
2018-08-21T18:26:51.788Z,102111.19
2018-08-21T18:29:20.345Z,102116.02
2018-08-21T18:31:48.620Z,102117.86
2018-08-21T18:34:16.901Z,102119.77
2018-08-21T18:36:45.210Z,102119.63
2018-08-21T18:39:14.097Z,102118.27
2018-08-21T18:41:42.363Z,102118.26
2018-08-21T18:44:10.641Z,102117.20
2018-08-21T18:46:38.901Z,102115.20
2018-08-21T18:49:07.193Z,102119.60
2018-08-21T18:51:35.636Z,102117.20
2018-08-21T18:54:03.885Z,102122.69
2018-08-21T18:56:32.161Z,102127.94
2018-08-21T18:59:00.558Z,102127.18
2018-08-21T19:01:28.809Z,102126.39
2018-08-21T19:03:57.264Z,102128.89
2018-08-21T19:06:25.468Z,102127.56
2018-08-21T19:08:53.963Z,102127.34
2018-08-21T19:11:22.293Z,102133.61
2018-08-21T19:13:50.568Z,102138.73
2018-08-21T19:16:18.853Z,102137.34
2018-08-21T19:18:47.129Z,102137.20
2018-08-21T19:21:15.417Z,102144.03
2018-08-21T19:23:43.783Z,102140.03
2018-08-21T19:26:12.068Z,102142.80
2018-08-21T19:28:40.349Z,102143.03
2018-08-21T19:31:08.643Z,102140.30
2018-08-21T19:33:36.905Z,102147.94
2018-08-21T19:36:05.213Z,102144.22
2018-08-21T19:38:33.479Z,102152.58
2018-08-21T19:41:02.129Z,102142.88
2018-08-21T19:43:30.773Z,102138.06
2018-08-21T19:45:59.079Z,102145.13
2018-08-21T19:48:27.397Z,102145.06
2018-08-21T19:50:55.667Z,102144.22
2018-08-21T19:53:23.969Z,102142.83
2018-08-21T19:55:52.237Z,102137.41
2018-08-21T19:58:20.583Z,102134.52
2018-08-21T20:00:48.814Z,102133.67
2018-08-21T20:03:17.245Z,102142.39
2018-08-21T20:05:45.590Z,102139.91
2018-08-21T20:08:13.892Z,102139.23
2018-08-21T20:10:42.246Z,102136.85
2018-08-21T20:13:10.536Z,102134.94
2018-08-21T20:15:38.805Z,102135.24
2018-08-21T20:18:07.125Z,102131.88
2018-08-21T20:20:35.393Z,102122.99
2018-08-21T20:23:03.761Z,102124.56
2018-08-21T20:25:32.016Z,102126.86
2018-08-21T20:28:00.293Z,102124.45
2018-08-21T20:30:28.593Z,102125.92
2018-08-21T20:32:56.966Z,102122.77
2018-08-21T20:35:25.277Z,102121.70
2018-08-21T20:37:53.559Z,102120.92
2018-08-21T20:40:26.215Z,102124.63
2018-08-21T20:42:54.502Z,102125.42
2018-08-21T20:45:22.842Z,102123.66
2018-08-21T20:47:51.208Z,102126.77
2018-08-21T20:50:19.509Z,102127.50
2018-08-21T20:52:47.889Z,102128.31
2018-08-21T20:55:16.260Z,102133.08
2018-08-21T20:57:46.741Z,102131.75
2018-08-21T21:00:15.141Z,102128.50
2018-08-21T21:02:43.516Z,102128.72
2018-08-21T21:05:11.785Z,102129.10
2018-08-21T21:07:41.121Z,102130.96
2018-08-21T21:10:09.412Z,102124.03
2018-08-21T21:12:47.043Z,102124.33
2018-08-21T21:15:27.361Z,102127.55
2018-08-21T21:18:06.997Z,102125.13
2018-08-21T21:20:47.577Z,102124.86
2018-08-21T21:23:18.833Z,102120.47
2018-08-21T21:25:47.161Z,102122.74
2018-08-21T21:28:16.613Z,102129.55
2018-08-21T21:30:45.172Z,102124.67
2018-08-21T21:33:13.997Z,102128.91
2018-08-21T21:35:42.410Z,102131.18
2018-08-21T21:38:10.946Z,102131.86
2018-08-21T21:40:39.358Z,102130.20
2018-08-21T21:43:07.660Z,102125.23
2018-08-21T21:45:36.409Z,102127.03
2018-08-21T21:48:05.591Z,102123.79
2018-08-21T21:50:34.051Z,102123.23
2018-08-21T21:53:03.557Z,102130.72
2018-08-21T21:55:31.907Z,102129.54
2018-08-21T21:58:00.203Z,102130.03
2018-08-21T22:00:29.397Z,102129.34
2018-08-21T22:02:57.844Z,102128.92
2018-08-21T22:05:26.916Z,102126.83
2018-08-21T22:07:55.217Z,102124.22
2018-08-21T22:10:23.828Z,102123.45
2018-08-21T22:12:52.229Z,102127.23
2018-08-21T22:15:20.558Z,102124.81
2018-08-21T22:17:48.934Z,102119.52
2018-08-21T22:20:17.229Z,102129.56
2018-08-21T22:22:45.498Z,102124.52
2018-08-21T22:25:13.893Z,102125.02
2018-08-21T22:27:42.177Z,102117.54
2018-08-21T22:30:11.249Z,102126.81
2018-08-21T22:32:40.561Z,102123.48
2018-08-21T22:35:08.925Z,102121.02
2018-08-21T22:37:37.210Z,102117.09
2018-08-21T22:40:05.554Z,102119.41
2018-08-21T22:42:33.965Z,102117.34
2018-08-21T22:45:02.310Z,102117.83
2018-08-21T22:47:30.613Z,102114.12
2018-08-21T22:49:58.882Z,102114.69
2018-08-21T22:52:27.165Z,102118.30
2018-08-21T22:54:55.625Z,102126.11
2018-08-21T22:57:23.933Z,102120.41
2018-08-21T22:59:52.199Z,102125.91
2018-08-21T23:02:20.485Z,102125.36
2018-08-21T23:04:50.789Z,102126.69
2018-08-21T23:07:19.181Z,102121.80
2018-08-21T23:09:47.534Z,102118.31
2018-08-21T23:12:15.835Z,102122.14
2018-08-21T23:14:44.151Z,102117.97
2018-08-21T23:17:12.511Z,102116.06
2018-08-21T23:19:40.826Z,102115.92
2018-08-21T23:22:09.128Z,102120.82
2018-08-21T23:24:37.425Z,102120.19
2018-08-21T23:27:06.629Z,102122.78
2018-08-21T23:29:34.923Z,102126.75
2018-08-21T23:32:03.254Z,102120.97
2018-08-21T23:34:31.557Z,102124.36
2018-08-21T23:36:59.818Z,102127.98
2018-08-21T23:39:28.495Z,102124.79
2018-08-21T23:41:57.420Z,102124.65
2018-08-21T23:44:25.796Z,102124.30
2018-08-21T23:46:54.069Z,102124.36
2018-08-21T23:49:22.377Z,102124.06
2018-08-21T23:51:50.653Z,102125.73
2018-08-21T23:54:18.965Z,102128.27
2018-08-21T23:56:47.251Z,102123.77
2018-08-21T23:59:15.577Z,102114.73
